Terminal Aerodrome Forecast
Issued by NWS Topeka, KS

Home | Current Version | Previous Version | Text Only | Print | Product List | Glossary On
Versions: 1 2 3 4 5 6 7 8 9 10 11 12 13 14 15 16
000
FTUS43 KTOP 272340
TAFTOP
TAF
KTOP 272340Z 2800/2824 16012G19KT P6SM SCT090
     FM280400 17012G20KT P6SM SCT100 WS020/19053KT
     FM281000 18014G21KT P6SM VCTS BKN090CB WS020/20050KT
     FM281400 19017G25KT P6SM SCT040 BKN070=

USA.gov is the U.S. government's official web portal to all federal, state and local government web resources and services.